Arkansas City, Kansas
Current Conditions -  °F | °C
As of 10:54 AM on Sunday 21 Dec 2014 (Local Time) from KWLD Reporting Station
Light Rain Light Rain  
Wind Chill: 37°   Ceiling: 1200
Heat Index: 43°   Visibility: 8mi
Dew Point: 40°   Wind: 12mph
Humidity: 89%   Direction: 170°S
Pressure: 29.96"   Gusts: NA
Location:  37.06°N, 97.04°W
Report Text: KWLD 211654Z AUTO 17010KT 8SM -RA OVC012 06/04 A2996 RMK AO2 RAB44 SLP148 P0000 T00610044
Loading
Personal Weather Stations






























Interactive Weather Map New forecast layout! Learn more

10-Day Weather Forecast

Advertisements
Track Severe Weather on mobile